Time;durP1;ratioP1;P1;durP2;ratioP2;P2;SDS_P1;SDS_P2;PMS_P1;PMS_P2;Temp;Humidity;BMP_temperature;BMP_pressure;BME280_temperature;BME280_humidity;BME280_pressure;Samples;Min_cycle;Max_cycle;Signal;HPM_P1;HPM_P2
2023/09/17 06:51:38;;;;;;;16.80;8.70;;;;;;;17.28;76.08;99459.80;102294;1292;636479;-74
2023/09/17 06:54:06;;;;;;;14.00;7.40;;;;;;;17.41;76.22;99461.64;104599;1267;94749;-73
2023/09/17 06:56:34;;;;;;;13.20;7.10;;;;;;;17.54;76.10;99468.33;104351;1272;94417;-74
2023/09/17 06:59:02;;;;;;;15.80;7.80;;;;;;;17.65;76.22;99468.41;104391;1272;107666;-73
2023/09/17 07:01:30;;;;;;;17.30;7.30;;;;;;;17.78;76.26;99471.46;104436;1272;95563;-74
2023/09/17 07:03:58;;;;;;;15.40;8.10;;;;;;;17.89;76.20;99473.84;104726;1270;107697;-76
2023/09/17 07:06:27;;;;;;;16.10;7.90;;;;;;;17.98;76.26;99475.74;104462;1270;157797;-73
2023/09/17 07:08:57;;;;;;;13.60;7.00;;;;;;;18.05;76.18;99474.57;104494;1269;94379;-75
2023/09/17 07:11:25;;;;;;;15.40;7.10;;;;;;;18.11;76.25;99476.20;104656;1269;108367;-74
2023/09/17 07:13:52;;;;;;;16.40;7.90;;;;;;;18.15;76.14;99476.80;104571;1279;95671;-74
2023/09/17 07:16:24;;;;;;;16.00;7.40;;;;;;;18.19;76.34;99473.77;104822;1263;107684;-74
2023/09/17 07:18:52;;;;;;;14.70;7.50;;;;;;;18.27;76.50;99480.53;105064;1258;95284;-74
2023/09/17 07:21:20;;;;;;;14.50;7.50;;;;;;;18.36;76.52;99482.38;104868;1262;95246;-74
2023/09/17 07:23:50;;;;;;;15.60;7.10;;;;;;;18.44;76.48;99482.60;105464;1254;108151;-74
2023/09/17 07:26:20;;;;;;;14.40;7.10;;;;;;;18.51;76.39;99481.28;105549;1254;95169;-74
2023/09/17 07:28:47;;;;;;;16.00;7.90;;;;;;;18.57;76.58;99478.67;105379;1256;108074;-75
2023/09/17 07:31:15;;;;;;;14.90;7.30;;;;;;;18.68;76.67;99481.19;105430;1256;95320;-74
2023/09/17 07:33:44;;;;;;;15.30;7.10;;;;;;;18.77;76.58;99477.58;105235;1253;95237;-75
2023/09/17 07:36:13;;;;;;;13.50;6.90;;;;;;;18.85;76.59;99477.31;105218;1259;108639;-74
2023/09/17 07:38:41;;;;;;;13.50;6.70;;;;;;;18.90;76.36;99479.36;105438;1256;95189;-74
2023/09/17 07:41:11;;;;;;;13.60;7.20;;;;;;;18.94;76.47;99477.66;105494;1256;107547;-75
2023/09/17 07:43:39;;;;;;;17.10;7.50;;;;;;;19.00;76.47;99479.25;105271;1256;95262;-74
2023/09/17 07:46:11;;;;;;;14.30;7.20;;;;;;;19.07;76.68;99481.61;105280;1256;95345;-76
2023/09/17 07:48:40;;;;;;;14.90;7.40;;;;;;;19.15;76.45;99481.17;105167;1256;108708;-74
2023/09/17 07:51:08;;;;;;;14.60;6.90;;;;;;;19.19;76.52;99479.52;105474;1257;96079;-76
2023/09/17 07:53:36;;;;;;;14.10;6.80;;;;;;;19.26;76.51;99485.65;105188;1269;107692;-73
2023/09/17 07:56:03;;;;;;;13.20;6.90;;;;;;;19.34;76.54;99483.75;105573;1253;96173;-74
2023/09/17 07:58:31;;;;;;;13.90;6.40;;;;;;;19.39;76.55;99484.83;105299;1253;95260;-75
2023/09/17 08:00:59;;;;;;;13.90;6.90;;;;;;;19.46;76.48;99485.77;105472;1254;108564;-74
2023/09/17 08:03:28;;;;;;;14.00;7.40;;;;;;;19.50;76.32;99485.88;105453;1257;95170;-73
2023/09/17 08:05:57;;;;;;;13.50;7.00;;;;;;;19.53;76.35;99483.42;105753;1257;108721;-75
2023/09/17 08:08:24;;;;;;;13.90;7.00;;;;;;;19.58;76.71;99481.27;105345;1259;95841;-73
2023/09/17 08:10:52;;;;;;;14.20;7.00;;;;;;;19.67;76.59;99475.08;105555;1257;95243;-74
2023/09/17 08:13:20;;;;;;;13.50;7.10;;;;;;;19.73;76.59;99478.24;105324;1258;107940;-73
2023/09/17 08:15:50;;;;;;;15.10;7.30;;;;;;;19.79;76.30;99475.83;105514;1257;96094;-73
2023/09/17 08:18:18;;;;;;;13.30;7.00;;;;;;;19.85;76.38;99474.95;105643;1266;107694;-73
2023/09/17 08:20:46;;;;;;;14.60;6.90;;;;;;;19.90;76.36;99477.74;105464;1254;96083;-74
2023/09/17 08:23:14;;;;;;;14.40;7.40;;;;;;;19.97;76.53;99478.67;105616;1254;95164;-72
2023/09/17 08:25:42;;;;;;;15.10;7.60;;;;;;;20.04;76.42;99476.85;105408;1259;108124;-72
2023/09/17 08:28:13;;;;;;;15.20;7.10;;;;;;;20.10;76.45;99473.16;105392;1254;95602;-73
2023/09/17 08:30:41;;;;;;;16.20;7.50;;;;;;;20.15;76.47;99476.99;105574;1259;106644;-74
2023/09/17 08:33:10;;;;;;;15.90;7.60;;;;;;;20.23;76.61;99471.59;105333;1259;95357;-71
2023/09/17 08:35:38;;;;;;;14.90;7.40;;;;;;;20.30;76.38;99471.84;105617;1253;95240;-73
2023/09/17 08:38:06;;;;;;;12.80;6.40;;;;;;;20.36;76.43;99469.83;105352;1269;107938;-72
2023/09/17 08:40:34;;;;;;;15.40;7.60;;;;;;;20.42;76.62;99473.38;105242;1257;95539;-74
2023/09/17 08:43:04;;;;;;;11.90;6.50;;;;;;;20.50;76.58;99475.08;105353;1253;107078;-74
2023/09/17 08:45:32;;;;;;;14.40;7.10;;;;;;;20.52;76.39;99466.68;105419;1257;95237;-74
2023/09/17 08:48:00;;;;;;;14.30;7.50;;;;;;;20.56;76.45;99468.11;105181;1254;95332;-74
2023/09/17 08:50:31;;;;;;;14.20;7.60;;;;;;;20.62;76.40;99467.88;105268;1257;109495;-74
2023/09/17 08:53:02;;;;;;;14.70;7.60;;;;;;;20.71;76.46;99466.88;105542;1254;95398;-75
2023/09/17 08:55:31;;;;;;;15.70;8.20;;;;;;;20.80;76.66;99467.74;105308;1259;107394;-72
2023/09/17 08:58:11;;;;;;;14.30;8.00;;;;;;;20.91;76.22;99465.97;105525;1254;95247;-73
2023/09/17 09:00:44;;;;;;;13.50;7.40;;;;;;;20.99;76.03;99466.40;105215;1257;95730;-73
2023/09/17 09:03:14;;;;;;;15.50;7.90;;;;;;;21.02;75.95;99465.81;105316;1259;108031;-73
2023/09/17 09:05:44;;;;;;;14.50;7.40;;;;;;;21.08;75.95;99469.91;105403;1256;95273;-74
2023/09/17 09:08:13;;;;;;;14.00;7.60;;;;;;;21.16;76.16;99470.95;105542;1257;107643;-73
2023/09/17 09:10:41;;;;;;;15.30;7.90;;;;;;;21.24;76.16;99473.16;105264;1254;96063;-74
2023/09/17 09:13:10;;;;;;;14.30;7.90;;;;;;;21.32;76.07;99469.04;105513;1259;95234;-73
2023/09/17 09:15:38;;;;;;;15.00;7.70;;;;;;;21.36;75.93;99468.80;105217;1253;107729;-73
2023/09/17 09:18:06;;;;;;;18.20;8.50;;;;;;;21.41;75.70;99469.29;105458;1257;95517;-73
2023/09/17 09:20:36;;;;;;;16.30;7.80;;;;;;;21.44;75.67;99469.85;105279;1259;107197;-73
2023/09/17 09:23:05;;;;;;;16.00;8.10;;;;;;;21.48;75.69;99470.36;105437;1257;95254;-74
2023/09/17 09:25:34;;;;;;;15.90;7.60;;;;;;;21.59;75.97;99470.59;105513;1253;95887;-74
2023/09/17 09:28:02;;;;;;;15.10;7.90;;;;;;;21.64;75.71;99469.63;105442;1259;108392;-73
2023/09/17 09:30:30;;;;;;;14.80;7.00;;;;;;;21.67;75.52;99466.74;105310;1254;95663;-73
2023/09/17 09:32:58;;;;;;;14.10;7.60;;;;;;;21.65;75.60;99462.83;105447;1260;107599;-76
2023/09/17 09:35:26;;;;;;;12.20;6.80;;;;;;;21.64;75.57;99461.95;105385;1259;96289;-73
2023/09/17 09:37:54;;;;;;;15.20;7.70;;;;;;;21.69;75.82;99459.33;105403;1257;95266;-76
2023/09/17 09:40:24;;;;;;;13.20;7.10;;;;;;;21.76;75.70;99459.88;105407;1257;109075;-75
2023/09/17 09:42:52;;;;;;;12.30;7.30;;;;;;;21.81;75.56;99461.95;105543;1254;95629;-74
2023/09/17 09:45:20;;;;;;;15.40;7.10;;;;;;;21.88;75.43;99469.48;105348;1259;107194;-74
2023/09/17 09:47:49;;;;;;;14.20;7.30;;;;;;;21.91;75.32;99465.20;105249;1258;95272;-73
2023/09/17 09:50:25;;;;;;;12.60;6.90;;;;;;;21.97;74.94;99465.83;105190;1258;95840;-74
2023/09/17 09:52:54;;;;;;;13.90;7.30;;;;;;;22.01;75.00;99464.70;108412;1253;108127;-72
2023/09/17 09:55:24;;;;;;;17.00;8.50;;;;;;;22.07;75.09;99464.66;107807;1254;96488;-73
2023/09/17 09:57:53;;;;;;;14.20;6.60;;;;;;;22.13;75.02;99464.25;105529;1254;106965;-74
2023/09/17 10:00:29;;;;;;;13.00;6.60;;;;;;;22.14;75.01;99463.27;105272;1259;95379;-73
2023/09/17 10:02:57;;;;;;;16.00;7.80;;;;;;;22.15;74.55;99464.27;105171;1259;96178;-75
2023/09/17 10:05:33;;;;;;;12.70;7.00;;;;;;;22.13;74.52;99459.45;105392;1257;108958;-73
2023/09/17 10:08:04;;;;;;;15.50;7.60;;;;;;;22.12;74.55;99465.61;105434;1257;95297;-74
2023/09/17 10:10:33;;;;;;;12.60;6.80;;;;;;;22.17;74.51;99465.78;105332;1257;107686;-72
2023/09/17 10:13:04;;;;;;;12.80;7.00;;;;;;;22.21;74.49;99464.81;105436;1259;95300;-72
2023/09/17 10:15:34;;;;;;;12.40;6.60;;;;;;;22.22;74.41;99460.95;105759;1254;95226;-75
2023/09/17 10:18:04;;;;;;;13.80;7.00;;;;;;;22.22;74.20;99461.08;105450;1257;108974;-72
2023/09/17 10:20:33;;;;;;;12.60;7.30;;;;;;;22.23;74.14;99457.89;105338;1258;95800;-73
2023/09/17 10:23:03;;;;;;;11.90;7.00;;;;;;;22.26;74.21;99458.52;105562;1258;107340;-72
2023/09/17 10:25:33;;;;;;;12.40;6.60;;;;;;;22.25;74.01;99459.67;105388;1259;95507;-72
2023/09/17 10:28:02;;;;;;;10.40;6.00;;;;;;;22.25;73.93;99464.86;105665;1258;95284;-75
2023/09/17 10:30:31;;;;;;;12.80;6.90;;;;;;;22.26;73.74;99465.20;105598;1256;109438;-72
2023/09/17 10:33:01;;;;;;;11.40;6.30;;;;;;;22.30;73.66;99463.20;105534;1258;95499;-74
2023/09/17 10:35:29;;;;;;;14.30;7.60;;;;;;;22.36;73.46;99454.89;105356;1257;107521;-75
2023/09/17 10:38:00;;;;;;;13.50;6.70;;;;;;;22.43;73.69;99459.99;105508;1254;95155;-73
2023/09/17 10:40:30;;;;;;;13.00;6.90;;;;;;;22.47;73.21;99457.17;105465;1259;95277;-74
2023/09/17 10:43:01;;;;;;;13.30;7.00;;;;;;;22.50;73.42;99456.35;105241;1264;106955;-73
2023/09/17 10:45:33;;;;;;;12.90;6.40;;;;;;;22.54;73.22;99461.64;105314;1262;95891;-74
2023/09/17 10:48:03;;;;;;;;;;;;;;;22.57;73.26;99457.14;105239;1258;107889;-72
2023/09/17 10:50:36;;;;;;;11.00;5.70;;;;;;;22.57;72.90;99455.48;105305;1258;95230;-73
2023/09/17 10:53:05;;;;;;;16.00;7.30;;;;;;;22.60;72.73;99457.59;105554;1259;95266;-73
2023/09/17 10:55:40;;;;;;;14.40;7.30;;;;;;;22.65;73.04;99452.58;105325;1260;108675;-72
2023/09/17 10:58:24;;;;;;;14.00;6.20;;;;;;;22.67;72.70;99451.57;105247;1259;95361;-73
2023/09/17 11:00:54;;;;;;;12.10;6.30;;;;;;;22.67;72.55;99452.82;105179;1259;107633;-73
2023/09/17 11:03:26;;;;;;;14.80;7.10;;;;;;;22.67;72.66;99448.22;105517;1269;96671;-73
2023/09/17 11:05:56;;;;;;;11.30;6.10;;;;;;;22.67;72.37;99448.55;105559;1256;96606;-72
2023/09/17 11:08:25;;;;;;;11.70;6.30;;;;;;;22.69;72.42;99448.65;105382;1259;111041;-73
2023/09/17 11:10:53;;;;;;;10.20;5.70;;;;;;;22.70;72.23;99443.69;105350;1259;96668;-73
2023/09/17 11:13:23;;;;;;;8.40;4.60;;;;;;;22.67;71.97;99438.23;105413;1260;107589;-74
2023/09/17 11:15:56;;;;;;;7.90;4.60;;;;;;;22.70;71.50;99439.11;105505;1257;97042;-74
2023/09/17 11:18:24;;;;;;;8.60;4.90;;;;;;;22.73;71.86;99438.28;105630;1259;96574;-73
2023/09/17 11:21:06;;;;;;;10.60;5.70;;;;;;;22.75;71.80;99434.57;105459;1257;110021;-73
2023/09/17 11:23:53;;;;;;;8.60;4.70;;;;;;;22.83;71.49;99436.87;108628;1253;96053;-75
2023/09/17 11:26:29;;;;;;;7.70;4.90;;;;;;;22.90;71.42;99431.39;108588;1253;107267;-73
2023/09/17 11:28:58;;;;;;;13.00;5.60;;;;;;;22.93;71.03;99433.00;105654;1269;96596;-73
2023/09/17 11:31:28;;;;;;;9.70;5.10;;;;;;;22.98;70.91;99433.03;105782;1267;96622;-74
2023/09/17 11:33:56;;;;;;;8.80;5.50;;;;;;;23.00;70.78;99430.05;105533;1254;109431;-75
2023/09/17 11:36:25;;;;;;;8.30;5.40;;;;;;;23.02;70.72;99428.97;105490;1259;96706;-74
2023/09/17 11:38:53;;;;;;;10.70;5.60;;;;;;;23.04;70.82;99430.98;105364;1258;107227;-73
2023/09/17 11:41:26;;;;;;;9.80;5.80;;;;;;;23.04;70.73;99427.73;105628;1258;96742;-73
2023/09/17 11:43:54;;;;;;;11.00;5.50;;;;;;;23.08;70.73;99423.66;105481;1258;96606;-73
2023/09/17 11:46:22;;;;;;;14.30;5.80;;;;;;;23.07;70.50;99423.70;105356;1254;109636;-73
2023/09/17 11:48:50;;;;;;;10.00;5.30;;;;;;;23.09;70.41;99418.59;105457;1254;96736;-72
2023/09/17 11:51:28;;;;;;;9.50;5.30;;;;;;;23.12;70.45;99418.39;105228;1258;107597;-74
2023/09/17 11:54:01;;;;;;;13.40;6.10;;;;;;;23.12;70.20;99416.34;105256;1259;97973;-73
2023/09/17 11:56:34;;;;;;;12.40;5.80;;;;;;;23.13;70.22;99418.16;105442;1259;98088;-73
2023/09/17 11:59:08;;;;;;;10.50;6.00;;;;;;;23.13;70.30;99422.11;105432;1268;109988;-74
2023/09/17 12:01:42;;;;;;;9.00;5.50;;;;;;;23.19;69.70;99420.37;105360;1259;96661;-73
2023/09/17 12:04:11;;;;;;;10.60;5.70;;;;;;;23.24;69.76;99425.61;105303;1254;107724;-76
2023/09/17 12:06:46;;;;;;;10.80;5.70;;;;;;;23.23;69.75;99425.37;105810;1254;96630;-74
2023/09/17 12:09:27;;;;;;;8.60;5.30;;;;;;;23.22;69.57;99422.55;105303;1259;97004;-76
2023/09/17 12:11:56;;;;;;;10.40;5.30;;;;;;;23.21;69.46;99419.89;105576;1259;110041;-73
2023/09/17 12:14:25;;;;;;;11.60;5.40;;;;;;;23.22;69.34;99420.56;105471;1253;96631;-73
2023/09/17 12:16:53;;;;;;;8.40;4.70;;;;;;;23.20;69.12;99420.02;105632;1257;107260;-71
2023/09/17 12:19:24;;;;;;;8.70;5.10;;;;;;;23.22;69.14;99421.30;105554;1254;96626;-73
2023/09/17 12:21:54;;;;;;;11.70;4.80;;;;;;;23.21;69.10;99415.74;105706;1259;96537;-73
2023/09/17 12:24:28;;;;;;;10.80;5.30;;;;;;;23.21;68.99;99411.56;105423;1258;109938;-74
2023/09/17 12:27:22;;;;;;;;;;;;;;;23.22;68.68;99403.70;105645;1256;97824;-75
2023/09/17 12:29:53;;;;;;;8.10;4.60;;;;;;;23.20;68.60;99399.58;105242;1259;107608;-73
2023/09/17 12:32:27;;;;;;;9.80;5.50;;;;;;;23.20;68.67;99404.61;105162;1257;97730;-73
2023/09/17 12:34:57;;;;;;;7.70;4.90;;;;;;;23.23;68.59;99402.50;105400;1257;96514;-74
2023/09/17 12:37:26;;;;;;;9.10;5.20;;;;;;;23.25;68.59;99401.61;105533;1258;109423;-75
2023/09/17 12:39:54;;;;;;;14.00;5.00;;;;;;;23.25;68.42;99400.65;105683;1259;96613;-73
2023/09/17 12:42:22;;;;;;;7.20;4.70;;;;;;;23.30;68.12;99401.11;105353;1259;107256;-75
2023/09/17 12:44:52;;;;;;;7.50;4.80;;;;;;;23.32;68.13;99403.58;105498;1259;96628;-73
2023/09/17 12:47:21;;;;;;;7.70;4.40;;;;;;;23.32;67.89;99397.44;105472;1257;97922;-75
2023/09/17 12:49:49;;;;;;;7.10;4.50;;;;;;;23.34;67.98;99398.83;108639;1253;110434;-74
2023/09/17 12:52:18;;;;;;;7.20;4.60;;;;;;;23.37;67.89;99393.08;108686;1257;95550;-76
2023/09/17 12:54:46;;;;;;;7.90;4.50;;;;;;;23.40;67.80;99395.00;108691;1253;108202;-74
2023/09/17 12:57:13;;;;;;;8.30;4.10;;;;;;;23.43;67.74;99394.57;108640;1254;95472;-74
2023/09/17 12:59:42;;;;;;;6.30;4.30;;;;;;;23.43;67.59;99390.36;108667;1253;94550;-74
2023/09/17 13:02:10;;;;;;;8.50;4.80;;;;;;;23.42;67.34;99392.27;108671;1253;110194;-74
2023/09/17 13:04:40;;;;;;;11.20;5.60;;;;;;;23.45;67.47;99393.30;105263;1259;97547;-74
2023/09/17 13:07:20;;;;;;;9.00;4.50;;;;;;;23.48;67.27;99390.97;105435;1258;108122;-73
2023/09/17 13:09:52;;;;;;;9.60;5.00;;;;;;;23.52;67.08;99390.22;105211;1254;96623;-73
2023/09/17 13:12:26;;;;;;;7.10;4.20;;;;;;;23.57;67.11;99393.71;105280;1254;96616;-73
2023/09/17 13:14:55;;;;;;;;;;;;;;;23.58;67.03;99392.35;105371;1259;110047;-73
2023/09/17 13:17:25;;;;;;;7.50;4.70;;;;;;;23.55;66.92;99388.67;105294;1257;97945;-75
2023/09/17 13:19:55;;;;;;;11.30;5.50;;;;;;;23.58;66.90;99392.35;105413;1256;107875;-74
2023/09/17 13:22:23;;;;;;;9.10;4.80;;;;;;;23.61;66.91;99391.36;105468;1254;97830;-73
2023/09/17 13:24:51;;;;;;;8.30;4.90;;;;;;;23.61;66.62;99393.23;105408;1257;96674;-73
2023/09/17 13:27:20;;;;;;;7.70;4.80;;;;;;;23.61;66.70;99396.45;105427;1254;108647;-75
2023/09/17 13:29:54;;;;;;;7.80;4.90;;;;;;;23.60;66.44;99390.63;105427;1258;96520;-75
2023/09/17 13:32:22;;;;;;;10.00;5.10;;;;;;;23.59;66.44;99390.56;105020;1254;107361;-73
2023/09/17 13:34:50;;;;;;;8.80;4.90;;;;;;;23.60;66.44;99389.40;105349;1259;96626;-75
2023/09/17 13:37:18;;;;;;;10.20;5.00;;;;;;;23.58;66.30;99386.55;105256;1257;96598;-72
2023/09/17 13:39:52;;;;;;;8.60;5.30;;;;;;;23.55;66.19;99384.85;105432;1257;110561;-73
2023/09/17 13:42:21;;;;;;;8.00;4.70;;;;;;;23.54;65.96;99384.86;105159;1259;96633;-73
2023/09/17 13:44:49;;;;;;;9.00;4.90;;;;;;;23.54;65.99;99382.31;105485;1257;107750;-73
2023/09/17 13:47:17;;;;;;;6.90;4.30;;;;;;;23.53;65.90;99383.52;105323;1260;96615;-73
2023/09/17 13:49:45;;;;;;;9.20;4.90;;;;;;;23.53;65.89;99391.53;105592;1253;96597;-74
2023/09/17 13:52:13;;;;;;;10.90;5.80;;;;;;;23.55;66.03;99384.14;105147;1253;110444;-74
2023/09/17 13:54:42;;;;;;;10.40;5.50;;;;;;;23.58;65.84;99383.13;105101;1260;96612;-74
2023/09/17 13:57:10;;;;;;;8.90;5.30;;;;;;;23.57;65.77;99379.73;105287;1260;107231;-75
2023/09/17 13:59:38;;;;;;;10.40;5.50;;;;;;;23.57;65.76;99382.08;105235;1253;96594;-73
2023/09/17 14:02:06;;;;;;;10.90;5.60;;;;;;;23.57;65.71;99382.69;105701;1253;96632;-74
2023/09/17 14:04:34;;;;;;;10.40;5.70;;;;;;;23.58;65.64;99382.58;105438;1259;109892;-74
2023/09/17 14:07:03;;;;;;;11.00;5.80;;;;;;;23.55;65.52;99380.34;105290;1254;96639;-75
2023/09/17 14:09:31;;;;;;;9.30;5.30;;;;;;;23.56;65.43;99382.80;105180;1259;108269;-74
2023/09/17 14:11:59;;;;;;;10.70;5.70;;;;;;;23.55;65.44;99380.08;105292;1259;96705;-74
2023/09/17 14:14:27;;;;;;;10.00;5.70;;;;;;;23.53;65.26;99383.14;105501;1259;97207;-73
2023/09/17 14:16:54;;;;;;;12.30;6.20;;;;;;;23.50;65.24;99380.45;105347;1259;110006;-73
2023/09/17 14:19:22;;;;;;;9.70;5.50;;;;;;;23.49;65.20;99379.81;105323;1256;96607;-74
2023/09/17 14:21:50;;;;;;;10.90;6.00;;;;;;;23.47;65.01;99378.46;105413;1260;107685;-75
2023/09/17 14:24:18;;;;;;;9.40;5.50;;;;;;;23.45;65.17;99373.55;105367;1254;96612;-74
2023/09/17 14:26:46;;;;;;;10.30;5.80;;;;;;;23.46;65.20;99375.52;105534;1254;97215;-74
2023/09/17 14:29:14;;;;;;;9.40;5.60;;;;;;;23.44;65.14;99377.75;105367;1259;109492;-73
2023/09/17 14:31:41;;;;;;;11.40;6.30;;;;;;;23.43;65.12;99376.65;105281;1259;97436;-74
2023/09/17 14:34:11;;;;;;;11.50;6.40;;;;;;;23.41;65.01;99384.14;105496;1260;107607;-74
2023/09/17 14:36:39;;;;;;;11.50;6.20;;;;;;;23.38;64.93;99378.34;105614;1259;96672;-73
2023/09/17 14:39:07;;;;;;;11.20;6.30;;;;;;;23.35;64.86;99380.44;105441;1254;96607;-73
2023/09/17 14:41:39;;;;;;;13.50;6.30;;;;;;;23.33;64.87;99380.11;105388;1254;109264;-74
2023/09/17 14:44:07;;;;;;;11.80;6.30;;;;;;;23.32;64.83;99374.67;105536;1254;96565;-75
2023/09/17 14:46:37;;;;;;;10.90;6.10;;;;;;;23.29;64.65;99374.67;105465;1258;107542;-73
2023/09/17 14:49:06;;;;;;;11.30;6.00;;;;;;;23.26;64.77;99376.46;105416;1264;96542;-75
2023/09/17 14:51:34;;;;;;;10.80;5.90;;;;;;;23.23;64.72;99375.33;105318;1259;96690;-74
2023/09/17 14:54:03;;;;;;;12.40;6.80;;;;;;;23.19;64.62;99381.40;105513;1254;108447;-74
2023/09/17 14:56:31;;;;;;;11.30;6.40;;;;;;;23.16;64.69;99382.52;105357;1257;97976;-74
2023/09/17 14:58:59;;;;;;;12.90;6.40;;;;;;;23.12;64.56;99386.42;105299;1254;106242;-76
2023/09/17 15:01:27;;;;;;;14.70;7.20;;;;;;;23.09;64.61;99379.44;105419;1259;96649;-74
2023/09/17 15:04:15;;;;;;;12.30;6.80;;;;;;;23.07;64.70;99381.79;105496;1257;96616;-74
2023/09/17 15:06:43;;;;;;;13.80;6.90;;;;;;;23.04;64.73;99384.53;105531;1259;109871;-74
2023/09/17 15:09:11;;;;;;;11.30;6.70;;;;;;;23.00;64.64;99384.20;105434;1257;96916;-74
2023/09/17 15:11:40;;;;;;;12.80;6.60;;;;;;;22.95;64.60;99387.62;105180;1267;107611;-74
2023/09/17 15:14:08;;;;;;;14.70;7.30;;;;;;;22.94;64.71;99379.80;105481;1261;96705;-74
2023/09/17 15:16:36;;;;;;;13.60;7.00;;;;;;;22.91;64.63;99377.55;105289;1260;96587;-75
2023/09/17 15:19:07;;;;;;;15.60;7.60;;;;;;;22.85;64.59;99380.41;105615;1258;109919;-74
2023/09/17 15:21:35;;;;;;;13.00;7.00;;;;;;;22.81;64.50;99386.66;105219;1263;96630;-73
2023/09/17 15:24:04;;;;;;;12.60;7.50;;;;;;;22.79;64.46;99388.55;105503;1257;107128;-73
2023/09/17 15:26:32;;;;;;;13.00;7.20;;;;;;;22.75;64.57;99387.02;105308;1259;96629;-75
2023/09/17 15:29:00;;;;;;;14.30;7.20;;;;;;;22.75;64.62;99387.56;105273;1260;97928;-74
2023/09/17 15:31:36;;;;;;;17.40;9.20;;;;;;;22.75;64.61;99390.48;105361;1257;110357;-73
2023/09/17 15:34:06;;;;;;;13.80;7.50;;;;;;;22.74;64.58;99388.92;105337;1257;97911;-73
2023/09/17 15:36:38;;;;;;;13.40;7.80;;;;;;;22.73;64.54;99390.02;105341;1260;107269;-72
2023/09/17 15:39:07;;;;;;;13.70;7.50;;;;;;;22.73;64.66;99390.46;105286;1259;97521;-74
2023/09/17 15:41:35;;;;;;;13.10;7.90;;;;;;;22.72;64.56;99389.55;105004;1259;96733;-72
2023/09/17 15:44:03;;;;;;;14.90;8.00;;;;;;;22.71;64.65;99386.82;105350;1259;109404;-74
2023/09/17 15:46:30;;;;;;;14.30;8.20;;;;;;;22.69;64.56;99381.38;105542;1259;96672;-73
2023/09/17 15:48:59;;;;;;;17.30;8.50;;;;;;;22.69;64.64;99384.98;105441;1260;107120;-75
2023/09/17 15:51:27;;;;;;;15.60;7.80;;;;;;;22.67;64.55;99379.47;105447;1270;97140;-74
2023/09/17 15:53:55;;;;;;;15.90;7.80;;;;;;;22.64;64.45;99380.39;105421;1258;96606;-75
2023/09/17 15:56:23;;;;;;;16.90;8.90;;;;;;;22.60;64.60;99381.94;105272;1254;109899;-75
2023/09/17 15:58:51;;;;;;;15.20;8.80;;;;;;;22.55;64.71;99380.14;105538;1258;96606;-74
2023/09/17 16:01:19;;;;;;;15.00;8.90;;;;;;;22.50;64.64;99383.42;105296;1254;107738;-75
2023/09/17 16:03:47;;;;;;;16.10;9.60;;;;;;;22.47;64.60;99381.33;105406;1264;97532;-74
2023/09/17 16:06:22;;;;;;;16.70;9.40;;;;;;;22.42;64.64;99378.76;105510;1254;96613;-74
2023/09/17 16:08:52;;;;;;;16.20;8.80;;;;;;;22.37;64.68;99377.91;105739;1257;109442;-73
2023/09/17 16:11:21;;;;;;;16.50;9.30;;;;;;;22.33;64.77;99381.98;105297;1261;96843;-74
2023/09/17 16:13:49;;;;;;;18.30;8.60;;;;;;;22.29;64.66;99384.60;105253;1257;106506;-74
2023/09/17 16:16:17;;;;;;;17.00;9.30;;;;;;;22.26;64.78;99386.09;105414;1259;96620;-74
2023/09/17 16:18:45;;;;;;;18.80;9.80;;;;;;;22.21;64.75;99387.21;105237;1256;96625;-74
2023/09/17 16:21:13;;;;;;;17.50;9.40;;;;;;;22.16;64.90;99385.81;105503;1259;109470;-75
2023/09/17 16:23:41;;;;;;;14.70;8.80;;;;;;;22.10;64.73;99385.21;105532;1257;96612;-73
2023/09/17 16:26:09;;;;;;;16.80;9.40;;;;;;;22.04;65.02;99383.01;105282;1264;107698;-74
2023/09/17 16:28:37;;;;;;;16.50;9.70;;;;;;;21.97;64.99;99383.73;105631;1257;96616;-75
2023/09/17 16:31:05;;;;;;;18.80;10.40;;;;;;;21.91;64.78;99384.91;105630;1255;96523;-76
2023/09/17 16:33:33;;;;;;;17.30;10.10;;;;;;;21.83;65.10;99385.42;105531;1256;109831;-75
2023/09/17 16:36:01;;;;;;;17.80;10.50;;;;;;;21.75;64.99;99387.44;105233;1267;97926;-75
2023/09/17 16:38:29;;;;;;;18.00;10.20;;;;;;;21.66;65.00;99385.14;105421;1258;107188;-74
2023/09/17 16:41:01;;;;;;;19.10;10.60;;;;;;;21.58;65.11;99385.35;105501;1267;96600;-75
2023/09/17 16:43:29;;;;;;;21.20;12.50;;;;;;;21.48;65.06;99388.39;105491;1256;96712;-73
2023/09/17 16:45:58;;;;;;;23.10;13.20;;;;;;;21.39;65.23;99387.77;105008;1259;109494;-74
2023/09/17 16:48:26;;;;;;;23.80;15.30;;;;;;;21.31;65.24;99383.48;105510;1257;96606;-74
2023/09/17 16:50:55;;;;;;;26.80;16.90;;;;;;;21.23;65.57;99383.59;105801;1259;107416;-73
2023/09/17 16:53:23;;;;;;;27.10;17.40;;;;;;;21.16;65.58;99385.94;105229;1259;96626;-74
2023/09/17 16:55:51;;;;;;;25.20;17.00;;;;;;;21.07;65.39;99383.98;105463;1266;96741;-74
2023/09/17 16:58:19;;;;;;;24.40;16.10;;;;;;;21.00;65.46;99391.80;105414;1257;109627;-75
2023/09/17 17:05:59;;;;;;;27.90;13.20;;;;;;;20.81;65.67;99397.46;106717;1247;107412;31
2023/09/17 17:09:11;;;;;;;21.00;12.80;;;;;;;20.75;65.91;99396.34;108274;1261;95772;-95
2023/09/17 17:16:15;;;;;;;18.40;10.80;;;;;;;20.59;65.85;99402.06;107224;1273;109660;-93
2023/09/17 17:27:40;;;;;;;23.60;13.80;;;;;;;20.33;66.39;99409.55;85922;1276;96548;31
2023/09/17 17:34:17;;;;;;;;;;;;;;;;;;;;;
2023/09/17 17:37:45;;;;;;;;;;;;;;;;;;;;;
2023/09/17 17:41:04;;;;;;;25.40;15.90;;;;;;;20.06;66.52;99413.64;107608;1267;108218;-94
2023/09/17 20:22:25;;;;;;;16.80;9.70;;;;;;;18.57;70.37;99417.05;104111;1286;122841;-95
2023/09/17 21:51:16;;;;;;;14.20;7.70;;;;;;;18.18;71.86;99399.62;105493;1288;95385;-94
